createdAt,value
2018-08-07T00:00:11.858Z,3.00
2018-08-07T00:02:40.158Z,2.90
2018-08-07T00:05:08.475Z,2.73
2018-08-07T00:07:36.821Z,3.10
2018-08-07T00:10:05.803Z,3.03
2018-08-07T00:12:34.114Z,3.03
2018-08-07T00:15:02.401Z,3.03
2018-08-07T00:17:30.666Z,3.47
2018-08-07T00:19:58.908Z,3.47
2018-08-07T00:22:27.174Z,3.30
2018-08-07T00:24:55.421Z,3.17
2018-08-07T00:27:23.677Z,3.10
2018-08-07T00:29:51.916Z,3.20
2018-08-07T00:32:20.193Z,3.10
2018-08-07T00:38:56.178Z,3.43
2018-08-07T00:41:24.421Z,3.50
2018-08-07T00:43:52.664Z,3.27
2018-08-07T00:46:20.904Z,3.67
2018-08-07T00:48:49.156Z,3.40
2018-08-07T00:51:17.388Z,3.03
2018-08-07T00:53:45.666Z,3.13
2018-08-07T00:56:13.957Z,3.30
2018-08-07T00:58:42.216Z,3.40
2018-08-07T01:01:10.488Z,3.10
2018-08-07T01:03:56.033Z,3.30
2018-08-07T01:06:24.264Z,3.30
2018-08-07T01:09:05.733Z,3.40
2018-08-07T01:11:33.980Z,3.27
2018-08-07T01:14:04.243Z,3.67
2018-08-07T01:16:32.481Z,3.40
2018-08-07T01:19:00.763Z,3.23
2018-08-07T01:21:39.851Z,3.57
2018-08-07T01:24:08.152Z,3.33
2018-08-07T01:26:36.428Z,3.50
2018-08-07T01:31:50.141Z,3.50
2018-08-07T01:34:18.393Z,3.53
2018-08-07T01:36:46.669Z,3.30
2018-08-07T01:39:26.600Z,3.80
2018-08-07T01:41:54.865Z,3.83
2018-08-07T01:44:23.113Z,3.70
2018-08-07T01:46:51.377Z,3.63
2018-08-07T01:49:19.628Z,3.47
2018-08-07T01:51:47.896Z,3.60
2018-08-07T01:54:16.124Z,4.00
2018-08-07T01:56:44.378Z,4.17
2018-08-07T01:59:12.641Z,3.70
2018-08-07T02:01:40.887Z,3.80
2018-08-07T02:04:09.137Z,4.20
2018-08-07T02:06:37.400Z,4.20
2018-08-07T02:09:06.637Z,3.33
2018-08-07T02:11:35.264Z,3.60
2018-08-07T02:14:03.545Z,3.50
2018-08-07T02:16:31.803Z,3.60
2018-08-07T02:19:00.049Z,3.90
2018-08-07T02:21:28.322Z,3.53
2018-08-07T02:23:56.556Z,4.20
2018-08-07T02:26:24.800Z,3.60
2018-08-07T02:28:53.076Z,3.40
2018-08-07T02:31:21.293Z,3.53
2018-08-07T02:36:40.267Z,3.73
2018-08-07T02:39:09.289Z,3.50
2018-08-07T02:41:37.745Z,4.03
2018-08-07T02:44:06.350Z,3.83
2018-08-07T02:46:34.614Z,4.17
2018-08-07T02:49:02.876Z,3.50
2018-08-07T02:51:31.100Z,4.03
2018-08-07T02:53:59.350Z,3.77
2018-08-07T02:56:27.629Z,4.10
2018-08-07T03:01:28.856Z,3.90
2018-08-07T03:03:57.176Z,4.00
2018-08-07T03:06:25.440Z,4.20
2018-08-07T03:08:53.725Z,4.00
2018-08-07T03:11:21.973Z,4.20
2018-08-07T03:13:50.239Z,4.17
2018-08-07T03:16:18.498Z,4.10
2018-08-07T03:18:46.764Z,4.10
2018-08-07T03:21:15.015Z,4.40
2018-08-07T03:23:43.256Z,4.63
2018-08-07T03:26:11.501Z,3.93
2018-08-07T03:28:39.739Z,4.30
2018-08-07T03:31:08.011Z,4.63
2018-08-07T03:33:36.274Z,4.40
2018-08-07T03:36:04.616Z,4.90
2018-08-07T03:38:32.837Z,4.07
2018-08-07T03:41:01.073Z,4.30
2018-08-07T03:43:29.301Z,5.07
2018-08-07T03:45:57.603Z,4.97
2018-08-07T03:48:25.872Z,4.67
2018-08-07T03:53:44.584Z,5.30
2018-08-07T03:56:12.816Z,4.90
2018-08-07T03:58:41.045Z,5.40
2018-08-07T04:01:09.280Z,4.80
2018-08-07T04:07:45.288Z,4.90
2018-08-07T04:10:14.861Z,5.17
2018-08-07T04:12:50.532Z,4.97
2018-08-07T04:15:21.216Z,4.90
2018-08-07T04:17:49.539Z,4.83
2018-08-07T04:20:18.839Z,5.23
2018-08-07T04:22:47.091Z,5.30
2018-08-07T04:25:21.713Z,5.03
2018-08-07T04:27:49.947Z,4.60
2018-08-07T04:30:19.306Z,4.50
2018-08-07T04:32:47.604Z,4.93
2018-08-07T04:35:16.589Z,4.93
2018-08-07T04:37:47.771Z,4.40
2018-08-07T04:40:16.079Z,5.07
2018-08-07T04:42:44.321Z,4.40
2018-08-07T04:45:15.037Z,4.50
2018-08-07T04:47:44.107Z,4.33
2018-08-07T04:50:12.398Z,4.83
2018-08-07T04:52:40.812Z,4.67
2018-08-07T04:55:10.065Z,4.70
2018-08-07T04:57:38.339Z,4.47
2018-08-07T05:00:11.348Z,4.43
2018-08-07T05:05:30.360Z,5.70
2018-08-07T05:07:58.641Z,5.90
2018-08-07T05:10:26.676Z,5.80
2018-08-07T05:12:54.860Z,6.27
2018-08-07T05:15:23.105Z,6.43
2018-08-07T05:17:51.337Z,5.67
2018-08-07T05:20:28.373Z,5.40
2018-08-07T05:22:56.635Z,5.73
2018-08-07T05:25:24.889Z,5.40
2018-08-07T05:27:53.152Z,5.70
2018-08-07T05:30:21.393Z,6.00
2018-08-07T05:32:49.698Z,5.77
2018-08-07T05:35:17.980Z,5.93
2018-08-07T05:37:46.268Z,6.00
2018-08-07T05:40:14.604Z,6.20
2018-08-07T05:45:17.713Z,6.20
2018-08-07T05:47:49.996Z,6.23
2018-08-07T05:50:18.363Z,6.60
2018-08-07T05:52:46.548Z,7.10
2018-08-07T05:55:14.911Z,6.23
2018-08-07T05:57:43.076Z,5.97
2018-08-07T06:00:16.769Z,5.43
2018-08-07T06:02:45.633Z,6.00
2018-08-07T06:05:13.876Z,5.53
2018-08-07T06:07:42.116Z,5.47
2018-08-07T06:10:11.655Z,5.53
2018-08-07T06:12:39.890Z,5.20
2018-08-07T06:15:11.473Z,5.67
2018-08-07T06:17:40.677Z,4.97
2018-08-07T06:22:53.477Z,4.37
2018-08-07T06:25:21.733Z,4.87
2018-08-07T06:27:49.996Z,4.77
2018-08-07T06:30:19.914Z,4.50
2018-08-07T06:32:49.093Z,5.00
2018-08-07T06:35:18.085Z,4.13
2018-08-07T06:37:46.501Z,4.50
2018-08-07T06:40:15.067Z,4.30
2018-08-07T06:42:43.412Z,4.40
2018-08-07T06:45:13.265Z,4.17
2018-08-07T06:47:41.553Z,4.40
2018-08-07T06:50:14.599Z,4.63
2018-08-07T06:52:45.756Z,3.70
2018-08-07T06:58:04.761Z,4.80
2018-08-07T07:00:33.049Z,4.33
2018-08-07T07:03:06.337Z,4.17
2018-08-07T07:05:34.585Z,4.33
2018-08-07T07:08:12.813Z,4.10
2018-08-07T07:10:41.107Z,4.37
2018-08-07T07:13:09.422Z,4.20
2018-08-07T07:15:37.733Z,4.20
2018-08-07T07:18:06.744Z,4.60
2018-08-07T07:20:35.004Z,4.03
2018-08-07T07:23:03.431Z,4.47
2018-08-07T07:25:31.704Z,4.17
2018-08-07T07:28:00.712Z,4.23
2018-08-07T07:30:52.201Z,4.83
2018-08-07T07:33:20.457Z,4.42
2018-08-07T07:35:48.708Z,4.75
2018-08-07T07:38:17.001Z,4.55
2018-08-07T07:40:46.292Z,4.30
2018-08-07T07:43:14.487Z,4.08
2018-08-07T07:45:42.713Z,3.83
2018-08-07T07:48:10.933Z,4.28
2018-08-07T07:50:39.185Z,4.28
2018-08-07T07:53:07.827Z,4.10
2018-08-07T07:55:36.094Z,4.20
2018-08-07T07:58:04.352Z,4.28
2018-08-07T08:03:23.100Z,4.70
2018-08-07T08:05:51.358Z,4.70
2018-08-07T08:08:19.616Z,4.40
2018-08-07T08:10:47.869Z,3.95
2018-08-07T08:13:16.016Z,4.55
2018-08-07T08:15:44.277Z,4.03
2018-08-07T08:18:12.608Z,4.12
2018-08-07T08:20:41.035Z,4.78
2018-08-07T08:23:10.212Z,4.45
2018-08-07T08:25:38.465Z,4.80
2018-08-07T08:29:42.991Z,4.67
2018-08-07T08:33:16.188Z,4.80
2018-08-07T08:35:44.775Z,4.33
2018-08-07T08:38:13.058Z,4.12
2018-08-07T08:40:41.534Z,4.30
2018-08-07T08:43:09.952Z,4.67
2018-08-07T08:45:42.029Z,5.08
2018-08-07T08:48:10.443Z,4.95
2018-08-07T08:50:38.700Z,4.97
2018-08-07T08:53:07.144Z,4.80
2018-08-07T08:55:35.756Z,4.60
2018-08-07T08:58:04.469Z,4.92
2018-08-07T09:00:32.965Z,5.10
2018-08-07T09:03:02.610Z,4.90
2018-08-07T09:05:31.543Z,4.65
2018-08-07T09:08:00.786Z,4.95
2018-08-07T09:10:30.821Z,4.83
2018-08-07T09:13:00.170Z,4.75
2018-08-07T09:15:29.063Z,5.25
2018-08-07T09:17:57.357Z,4.95
2018-08-07T09:20:28.949Z,4.80
2018-08-07T09:22:57.704Z,5.00
2018-08-07T09:25:28.254Z,5.00
2018-08-07T09:27:56.644Z,4.47
2018-08-07T09:30:26.188Z,5.35
2018-08-07T09:32:56.016Z,4.80
2018-08-07T09:35:26.505Z,4.65
2018-08-07T09:37:56.475Z,4.90
2018-08-07T09:40:25.821Z,5.15
2018-08-07T09:42:57.342Z,5.10
2018-08-07T09:45:31.262Z,4.90
2018-08-07T09:48:01.382Z,5.70
2018-08-07T09:50:31.947Z,4.62
2018-08-07T09:53:01.099Z,4.85
2018-08-07T09:55:30.705Z,5.03
2018-08-07T09:58:02.124Z,4.95
2018-08-07T10:00:37.142Z,5.33
2018-08-07T10:03:10.654Z,4.85
2018-08-07T10:05:39.967Z,4.90
2018-08-07T10:08:08.253Z,5.53
2018-08-07T10:10:36.492Z,5.45
2018-08-07T10:13:05.857Z,5.55
2018-08-07T10:15:35.310Z,5.10
2018-08-07T10:18:03.565Z,5.53
2018-08-07T10:20:34.397Z,5.17
2018-08-07T10:23:05.074Z,5.80
2018-08-07T10:25:36.373Z,5.22
2018-08-07T10:28:04.849Z,5.05
2018-08-07T10:30:39.248Z,5.08
2018-08-07T10:33:08.654Z,5.12
2018-08-07T10:35:38.488Z,5.30
2018-08-07T10:38:09.757Z,5.35
2018-08-07T10:40:38.460Z,4.90
2018-08-07T10:43:30.047Z,5.05
2018-08-07T10:45:58.727Z,5.28
2018-08-07T10:48:26.980Z,4.60
2018-08-07T10:50:55.809Z,5.17
2018-08-07T10:53:24.626Z,5.22
2018-08-07T10:55:55.530Z,4.62
2018-08-07T10:58:24.622Z,4.92
2018-08-07T11:00:53.364Z,5.00
2018-08-07T11:03:22.461Z,5.10
2018-08-07T11:05:52.851Z,4.85
2018-08-07T11:08:21.882Z,4.35
2018-08-07T11:10:51.892Z,4.72
2018-08-07T11:13:23.078Z,4.45
2018-08-07T11:15:52.508Z,4.47
2018-08-07T11:18:21.092Z,4.60
2018-08-07T11:20:50.661Z,4.42
2018-08-07T11:23:19.907Z,4.45
2018-08-07T11:25:49.004Z,4.42
2018-08-07T11:28:19.415Z,4.20
2018-08-07T11:30:50.330Z,4.17
2018-08-07T11:33:19.109Z,4.50
2018-08-07T11:35:47.820Z,4.55
2018-08-07T11:38:16.565Z,4.87
2018-08-07T11:40:45.422Z,4.55
2018-08-07T11:43:14.254Z,4.25
2018-08-07T11:45:43.110Z,3.98
2018-08-07T11:48:12.221Z,4.00
2018-08-07T11:50:42.872Z,3.75
2018-08-07T11:53:12.239Z,3.77
2018-08-07T11:55:40.985Z,4.22
2018-08-07T11:58:09.776Z,4.22
2018-08-07T12:00:39.205Z,4.50
2018-08-07T12:03:09.570Z,4.47
2018-08-07T12:05:38.393Z,4.85
2018-08-07T12:08:08.038Z,4.53
2018-08-07T12:10:36.984Z,4.92
2018-08-07T12:13:06.034Z,4.55
2018-08-07T12:15:35.163Z,4.87
2018-08-07T12:18:04.061Z,5.03
2018-08-07T12:20:33.070Z,4.85
2018-08-07T12:23:01.908Z,4.58
2018-08-07T12:25:30.793Z,5.17
2018-08-07T12:27:59.561Z,4.58
2018-08-07T12:30:29.508Z,4.10
2018-08-07T12:32:58.836Z,4.30
2018-08-07T12:35:27.553Z,4.35
2018-08-07T12:37:56.565Z,4.15
2018-08-07T12:40:29.028Z,4.17
2018-08-07T12:43:02.352Z,4.95
2018-08-07T12:45:31.458Z,4.55
2018-08-07T12:48:01.359Z,3.92
2018-08-07T12:50:29.889Z,3.72
2018-08-07T12:52:58.679Z,4.45
2018-08-07T12:55:27.497Z,4.62
2018-08-07T12:57:55.878Z,3.85
2018-08-07T13:00:28.153Z,4.28
2018-08-07T13:02:57.137Z,4.20
2018-08-07T13:05:25.829Z,4.45
2018-08-07T13:07:54.896Z,4.33
2018-08-07T13:10:24.531Z,4.30
2018-08-07T13:12:54.577Z,3.90
2018-08-07T13:15:23.677Z,4.25
2018-08-07T13:17:52.405Z,4.10
2018-08-07T13:20:21.151Z,4.20
2018-08-07T13:22:49.932Z,4.00
2018-08-07T13:25:21.241Z,4.40
2018-08-07T13:27:50.010Z,4.33
2018-08-07T13:30:20.508Z,4.20
2018-08-07T13:32:49.270Z,4.00
2018-08-07T13:35:18.479Z,3.85
2018-08-07T13:37:48.765Z,4.37
2018-08-07T13:40:18.781Z,4.40
2018-08-07T13:42:47.511Z,4.62
2018-08-07T13:45:18.081Z,4.10
2018-08-07T13:47:46.826Z,4.28
2018-08-07T13:50:19.745Z,4.17
2018-08-07T13:52:49.106Z,4.97
2018-08-07T13:55:18.703Z,4.62
2018-08-07T13:57:47.491Z,4.70
2018-08-07T14:00:23.017Z,4.40
2018-08-07T14:02:53.339Z,4.70
2018-08-07T14:05:23.592Z,4.45
2018-08-07T14:07:53.465Z,4.92
2018-08-07T14:10:23.156Z,4.37
2018-08-07T14:12:51.540Z,4.95
2018-08-07T14:15:21.553Z,4.60
2018-08-07T14:17:50.317Z,4.72
2018-08-07T14:20:19.043Z,4.87
2018-08-07T14:22:48.220Z,4.80
2018-08-07T14:25:20.136Z,4.65
2018-08-07T14:27:50.193Z,4.42
2018-08-07T14:30:31.622Z,4.83
2018-08-07T14:33:02.857Z,4.05
2018-08-07T14:35:31.649Z,4.80
2018-08-07T14:38:00.399Z,4.28
2018-08-07T14:40:29.252Z,4.47
2018-08-07T14:42:58.160Z,4.28
2018-08-07T14:45:28.392Z,4.53
2018-08-07T14:47:57.736Z,4.42
2018-08-07T14:50:27.849Z,4.50
2018-08-07T14:52:56.697Z,4.28
2018-08-07T14:55:26.053Z,5.90
2018-08-07T14:57:54.870Z,5.08
2018-08-07T15:00:25.201Z,5.67
2018-08-07T15:02:53.926Z,5.70
2018-08-07T15:05:22.685Z,5.95
2018-08-07T15:07:51.511Z,6.20
2018-08-07T15:10:21.928Z,6.05
2018-08-07T15:12:50.802Z,5.92
2018-08-07T15:15:28.166Z,6.30
2018-08-07T15:17:56.993Z,6.17
2018-08-07T15:20:46.188Z,6.10
2018-08-07T15:23:15.268Z,6.45
2018-08-07T15:25:43.534Z,6.30
2018-08-07T15:28:12.405Z,6.85
2018-08-07T15:30:41.275Z,6.45
2018-08-07T15:33:10.062Z,6.55
2018-08-07T15:35:38.859Z,6.72
2018-08-07T15:38:08.428Z,6.33
2018-08-07T15:40:37.208Z,6.92
2018-08-07T15:43:06.174Z,6.83
2018-08-07T15:45:35.555Z,7.17
2018-08-07T15:48:03.805Z,7.35
2018-08-07T15:50:32.560Z,6.05
2018-08-07T15:53:01.354Z,6.92
2018-08-07T15:55:30.223Z,7.28
2018-08-07T15:57:58.501Z,7.05
2018-08-07T16:00:28.926Z,6.97
2018-08-07T16:03:01.979Z,7.12
2018-08-07T16:05:30.946Z,7.75
2018-08-07T16:07:59.860Z,6.60
2018-08-07T16:10:28.832Z,6.58
2018-08-07T16:12:57.671Z,6.72
2018-08-07T16:15:26.390Z,6.67
2018-08-07T16:17:55.702Z,6.42
2018-08-07T16:20:24.558Z,6.80
2018-08-07T16:22:53.285Z,6.70
2018-08-07T16:25:28.631Z,6.55
2018-08-07T16:27:57.454Z,6.85
2018-08-07T16:30:27.116Z,6.80
2018-08-07T16:32:55.919Z,6.50
2018-08-07T16:35:24.745Z,6.75
2018-08-07T16:37:53.526Z,7.30
2018-08-07T16:40:24.487Z,7.10
2018-08-07T16:42:54.665Z,6.87
2018-08-07T16:45:24.273Z,6.62
2018-08-07T16:47:53.000Z,5.92
2018-08-07T16:50:26.153Z,6.03
2018-08-07T16:52:56.363Z,5.00
2018-08-07T16:55:26.636Z,5.53
2018-08-07T16:57:55.118Z,4.95
2018-08-07T17:00:23.992Z,4.62
2018-08-07T17:02:52.780Z,4.67
2018-08-07T17:05:21.571Z,4.50
2018-08-07T17:07:50.634Z,4.83
2018-08-07T17:10:25.738Z,4.10
2018-08-07T17:12:55.025Z,4.78
2018-08-07T17:15:23.918Z,4.78
2018-08-07T17:17:52.966Z,4.00
2018-08-07T17:20:22.377Z,4.30
2018-08-07T17:22:51.648Z,4.08
2018-08-07T17:25:21.569Z,4.28
2018-08-07T17:27:50.667Z,4.10
2018-08-07T17:33:09.848Z,3.70
2018-08-07T17:36:15.707Z,3.80
2018-08-07T17:38:44.413Z,3.70
2018-08-07T17:41:13.309Z,3.60
2018-08-07T17:43:42.005Z,3.47
2018-08-07T17:46:10.811Z,3.20
2018-08-07T17:48:40.111Z,3.63
2018-08-07T17:51:09.325Z,3.33
2018-08-07T17:53:38.057Z,3.50
2018-08-07T17:56:07.060Z,3.15
2018-08-07T17:58:35.808Z,3.40
2018-08-07T18:01:04.566Z,3.72
2018-08-07T18:03:33.285Z,3.60
2018-08-07T18:06:02.019Z,3.50
2018-08-07T18:08:30.848Z,3.50
2018-08-07T18:11:00.189Z,3.30
2018-08-07T18:13:29.848Z,3.52
2018-08-07T18:15:58.617Z,3.10
2018-08-07T18:18:27.392Z,3.75
2018-08-07T18:20:56.168Z,3.10
2018-08-07T18:23:24.901Z,3.22
2018-08-07T18:25:53.513Z,3.67
2018-08-07T18:28:22.228Z,3.10
2018-08-07T18:30:51.932Z,3.60
2018-08-07T18:33:20.660Z,3.90
2018-08-07T18:35:49.417Z,3.80
2018-08-07T18:38:18.135Z,3.40
2018-08-07T18:40:46.899Z,3.95
2018-08-07T18:43:15.670Z,3.90
2018-08-07T18:45:44.457Z,4.30
2018-08-07T18:48:13.245Z,4.30
2018-08-07T18:50:42.204Z,3.67
2018-08-07T18:53:10.507Z,4.40
2018-08-07T18:55:39.291Z,3.47
2018-08-07T18:58:08.188Z,4.35
2018-08-07T19:00:37.046Z,3.53
2018-08-07T19:03:05.885Z,4.03
2018-08-07T19:05:34.632Z,3.90
2018-08-07T19:08:03.387Z,4.13
2018-08-07T19:10:32.416Z,4.00
2018-08-07T19:13:00.738Z,3.80
2018-08-07T19:15:30.520Z,4.33
2018-08-07T19:17:59.750Z,4.67
2018-08-07T19:20:28.767Z,4.57
2018-08-07T19:22:57.625Z,4.50
2018-08-07T19:25:26.437Z,4.13
2018-08-07T19:27:54.847Z,4.67
2018-08-07T19:30:25.472Z,4.20
2018-08-07T19:32:54.253Z,4.00
2018-08-07T19:35:23.189Z,4.47
2018-08-07T19:37:54.582Z,4.63
2018-08-07T19:40:23.431Z,4.77
2018-08-07T19:42:52.234Z,4.40
2018-08-07T19:45:21.365Z,5.10
2018-08-07T19:47:50.301Z,4.80
2018-08-07T19:50:20.807Z,5.13
2018-08-07T19:52:49.737Z,4.90
2018-08-07T19:55:20.810Z,5.00
2018-08-07T19:57:49.814Z,5.03
2018-08-07T20:00:22.856Z,5.13
2018-08-07T20:02:52.098Z,5.10
2018-08-07T20:05:21.684Z,5.10
2018-08-07T20:07:50.876Z,5.27
2018-08-07T20:10:19.853Z,5.10
2018-08-07T20:12:48.670Z,5.07
2018-08-07T20:15:20.245Z,5.00
2018-08-07T20:17:49.649Z,4.93
2018-08-07T20:20:19.373Z,5.37
2018-08-07T20:22:48.202Z,5.13
2018-08-07T20:25:17.027Z,5.10
2018-08-07T20:27:45.786Z,5.17
2018-08-07T20:30:19.425Z,5.17
2018-08-07T20:32:49.118Z,5.20
2018-08-07T20:35:19.051Z,5.40
2018-08-07T20:37:47.736Z,5.13
2018-08-07T20:40:20.195Z,5.50
2018-08-07T20:42:49.240Z,5.10
2018-08-07T20:45:19.625Z,5.13
2018-08-07T20:47:48.503Z,5.53
2018-08-07T20:50:19.853Z,5.10
2018-08-07T20:52:48.685Z,5.60
2018-08-07T20:55:17.307Z,4.70
2018-08-07T21:01:06.790Z,5.00
2018-08-07T21:03:35.095Z,5.60
2018-08-07T21:06:03.362Z,5.50
2018-08-07T21:08:32.764Z,5.57
2018-08-07T21:11:01.103Z,5.37
2018-08-07T21:13:29.382Z,5.13
2018-08-07T21:15:58.946Z,5.60
2018-08-07T21:18:35.898Z,5.50
2018-08-07T21:21:04.340Z,5.27
2018-08-07T21:23:32.933Z,5.43
2018-08-07T21:26:15.678Z,5.77
2018-08-07T21:28:44.027Z,5.73
2018-08-07T21:31:12.226Z,5.47
2018-08-07T21:33:40.540Z,5.90
2018-08-07T21:36:08.814Z,5.47
2018-08-07T21:38:37.080Z,5.80
2018-08-07T21:41:05.406Z,5.47
2018-08-07T21:43:33.674Z,5.77
2018-08-07T21:46:01.961Z,5.70
2018-08-07T21:48:30.349Z,5.93
2018-08-07T21:50:58.623Z,5.87
2018-08-07T21:53:26.906Z,6.00
2018-08-07T21:55:55.173Z,5.87
2018-08-07T21:58:23.456Z,6.07
2018-08-07T22:00:51.992Z,6.30
2018-08-07T22:03:20.610Z,5.90
2018-08-07T22:05:49.578Z,5.90
2018-08-07T22:08:17.875Z,6.00
2018-08-07T22:10:46.139Z,6.07
2018-08-07T22:13:14.424Z,6.13
2018-08-07T22:15:42.667Z,6.20
2018-08-07T22:18:11.693Z,6.63
2018-08-07T22:20:39.962Z,6.43
2018-08-07T22:23:08.216Z,5.63
2018-08-07T22:25:36.494Z,6.93
2018-08-07T22:28:05.353Z,6.00
2018-08-07T22:30:33.617Z,5.80
2018-08-07T22:33:01.893Z,5.93
2018-08-07T22:35:30.171Z,6.23
2018-08-07T22:37:58.425Z,5.80
2018-08-07T22:40:26.706Z,6.27
2018-08-07T22:42:54.953Z,5.90
2018-08-07T22:45:23.206Z,6.40
2018-08-07T22:47:51.474Z,5.97
2018-08-07T22:50:19.763Z,6.00
2018-08-07T22:52:48.050Z,6.50
2018-08-07T22:55:17.724Z,6.70
2018-08-07T22:57:45.994Z,6.60
2018-08-07T23:00:15.877Z,6.63
2018-08-07T23:02:44.081Z,6.80
2018-08-07T23:05:13.138Z,6.57
2018-08-07T23:07:41.858Z,6.93
2018-08-07T23:10:16.473Z,6.73
2018-08-07T23:12:45.067Z,6.67
2018-08-07T23:15:15.630Z,6.67
2018-08-07T23:17:44.201Z,7.03
2018-08-07T23:20:14.939Z,7.13
2018-08-07T23:22:43.223Z,7.27
2018-08-07T23:25:11.833Z,7.40
2018-08-07T23:27:40.098Z,7.27
2018-08-07T23:30:12.262Z,7.47
2018-08-07T23:32:40.686Z,7.70
2018-08-07T23:35:09.085Z,7.73
2018-08-07T23:37:37.341Z,7.47
2018-08-07T23:40:07.318Z,7.07
2018-08-07T23:42:35.666Z,6.97
2018-08-07T23:45:04.734Z,6.13
2018-08-07T23:47:33.018Z,6.40
2018-08-07T23:50:01.297Z,6.77
2018-08-07T23:52:29.565Z,7.10
2018-08-07T23:54:57.855Z,6.83
2018-08-07T23:57:26.141Z,7.13
2018-08-07T23:59:54.430Z,7.53
